Time;durP1;ratioP1;P1;durP2;ratioP2;P2;SDS_P1;SDS_P2;PMS_P1;PMS_P2;Temp;Humidity;BMP_temperature;BMP_pressure;BME280_temperature;BME280_humidity;BME280_pressure;Samples;Min_cycle;Max_cycle;Signal;HPM_P1;HPM_P2
2022/05/07 00:01:19;;;;;;;23.15;16.00;;;8.10;90.60;;;;;;5052681;28;20032;-68
2022/05/07 00:03:46;;;;;;;23.58;16.73;;;8.00;90.50;;;;;;5052981;28;20071;-68
2022/05/07 00:06:11;;;;;;;25.10;16.13;;;8.00;90.50;;;;;;5057278;28;20475;-69
2022/05/07 00:08:37;;;;;;;27.83;18.48;;;8.00;90.50;;;;;;5060444;28;20025;-68
2022/05/07 00:11:03;;;;;;;25.08;18.17;;;8.00;89.90;;;;;;5065361;28;20036;-68
2022/05/07 00:13:28;;;;;;;25.33;18.90;;;8.00;89.90;;;;;;5043163;28;20040;-69
2022/05/07 00:18:38;;;;;;;29.75;19.50;;;7.90;89.40;;;;;;5052796;28;20223;-68
2022/05/07 00:21:04;;;;;;;29.63;19.33;;;7.90;89.30;;;;;;5061949;28;20465;-69
2022/05/07 00:23:30;;;;;;;25.73;19.77;;;7.80;89.30;;;;;;5063495;28;20025;-68
2022/05/07 00:25:58;;;;;;;39.67;21.02;;;7.80;89.40;;;;;;5056796;28;20075;-68
2022/05/07 00:28:23;;;;;;;30.45;18.02;;;7.70;88.70;;;;;;5064769;28;20097;-69
2022/05/07 00:30:49;;;;;;;27.23;18.77;;;7.80;88.40;;;;;;5055390;28;20422;-69
2022/05/07 00:33:15;;;;;;;25.98;19.23;;;7.90;88.60;;;;;;5044620;28;20052;-68
2022/05/07 00:35:40;;;;;;;32.50;20.63;;;7.90;88.80;;;;;;5055950;28;20075;-69
2022/05/07 00:38:06;;;;;;;26.75;19.00;;;7.90;89.90;;;;;;5056876;28;20025;-69
2022/05/07 00:40:36;;;;;;;22.85;16.15;;;7.70;90.20;;;;;;5060420;28;20108;-69
2022/05/07 00:43:02;;;;;;;25.08;18.05;;;7.40;90.40;;;;;;5064367;28;20104;-68
2022/05/07 00:45:27;;;;;;;28.95;19.30;;;7.30;89.70;;;;;;5058794;28;20109;-68
2022/05/07 00:47:53;;;;;;;31.90;20.00;;;7.30;89.20;;;;;;5054092;28;20040;-69
2022/05/07 00:53:04;;;;;;;34.38;21.27;;;7.40;87.70;;;;;;5055066;28;20451;-69
2022/05/07 00:55:32;;;;;;;35.90;20.40;;;7.40;87.50;;;;;;5044585;28;20024;-68
2022/05/07 00:57:58;;;;;;;31.33;21.35;;;7.50;87.30;;;;;;5040073;28;20436;-69
2022/05/07 01:00:24;;;;;;;26.42;18.13;;;7.50;87.40;;;;;;5053858;28;20067;-68
2022/05/07 01:02:50;;;;;;;29.92;18.65;;;7.50;87.80;;;;;;5051512;28;20546;-69
2022/05/07 01:05:16;;;;;;;36.28;17.40;;;7.50;88.00;;;;;;5053645;28;20083;-69
2022/05/07 01:07:43;;;;;;;24.55;16.98;;;7.40;88.10;;;;;;5053137;28;20029;-69
2022/05/07 01:10:09;;;;;;;28.17;16.08;;;7.40;88.50;;;;;;5052660;28;20433;-69
2022/05/07 01:12:35;;;;;;;27.65;17.02;;;7.40;88.00;;;;;;5056509;28;20025;-69
2022/05/07 01:15:02;;;;;;;25.25;16.42;;;7.40;88.00;;;;;;5056607;28;20061;-69
2022/05/07 01:17:31;;;;;;;27.75;15.15;;;7.50;88.00;;;;;;5057230;28;20135;-68
2022/05/07 01:19:57;;;;;;;24.15;15.55;;;7.50;88.70;;;;;;5053808;28;20036;-69
2022/05/07 01:22:22;;;;;;;21.52;14.63;;;7.50;89.20;;;;;;5053839;28;20310;-69
2022/05/07 01:24:48;;;;;;;18.10;13.15;;;7.50;89.60;;;;;;5054737;28;20037;-68
2022/05/07 01:27:14;;;;;;;23.58;14.20;;;7.40;89.70;;;;;;5035714;28;20036;-67
2022/05/07 01:29:40;;;;;;;21.00;13.48;;;7.30;89.70;;;;;;5048600;28;20103;-66
2022/05/07 01:32:06;;;;;;;21.13;13.25;;;7.30;89.50;;;;;;5051924;28;20047;-67
2022/05/07 01:34:31;;;;;;;21.08;13.32;;;7.30;89.70;;;;;;5054619;28;20087;-67
2022/05/07 01:36:57;;;;;;;20.30;12.90;;;7.20;89.90;;;;;;5052970;28;20079;-70
2022/05/07 01:39:22;;;;;;;25.23;16.23;;;7.20;89.80;;;;;;5054456;28;20033;-69
2022/05/07 01:41:48;;;;;;;19.80;12.82;;;7.10;89.80;;;;;;5053746;28;21715;-68
2022/05/07 01:44:14;;;;;;;20.38;12.48;;;6.90;90.10;;;;;;5054323;28;20037;-69
2022/05/07 01:49:24;;;;;;;18.17;11.50;;;6.80;89.40;;;;;;5055201;28;20366;-69
2022/05/07 01:51:50;;;;;;;21.60;14.98;;;6.80;88.50;;;;;;5053161;28;20049;-68
2022/05/07 01:54:16;;;;;;;25.63;17.10;;;6.80;88.30;;;;;;5053436;28;20029;-69
2022/05/07 01:56:42;;;;;;;21.85;15.25;;;6.80;87.60;;;;;;5053085;28;20040;-68
2022/05/07 01:59:10;;;;;;;27.00;14.80;;;6.90;87.50;;;;;;5036183;28;20102;-68
2022/05/07 02:01:36;;;;;;;22.75;14.57;;;7.00;87.30;;;;;;5051053;28;20083;-69
2022/05/07 02:04:02;;;;;;;24.67;14.52;;;7.00;87.90;;;;;;5054564;28;20116;-68
2022/05/07 02:06:28;;;;;;;22.25;14.52;;;7.00;88.00;;;;;;5053642;28;20097;-69
2022/05/07 02:08:54;;;;;;;20.23;13.63;;;7.00;88.30;;;;;;5054662;28;20049;-69
2022/05/07 02:11:23;;;;;;;20.58;14.25;;;7.00;88.50;;;;;;5053495;28;20029;-68
2022/05/07 02:13:48;;;;;;;23.13;14.48;;;6.90;89.30;;;;;;5054271;28;20083;-68
2022/05/07 02:16:14;;;;;;;20.95;13.65;;;6.80;88.80;;;;;;5051298;28;20424;-68
2022/05/07 02:18:42;;;;;;;25.33;14.32;;;6.80;88.80;;;;;;5053556;28;20040;-69
2022/05/07 02:21:08;;;;;;;22.90;15.43;;;6.70;88.70;;;;;;5054132;28;20036;-68
2022/05/07 02:23:34;;;;;;;30.80;15.90;;;6.70;87.70;;;;;;5053489;28;20317;-69
2022/05/07 02:26:00;;;;;;;25.33;17.08;;;6.80;87.70;;;;;;5052550;28;20021;-69
2022/05/07 02:28:25;;;;;;;21.60;15.07;;;6.80;87.60;;;;;;5053165;28;20104;-69
2022/05/07 02:30:51;;;;;;;25.67;17.70;;;6.80;87.70;;;;;;5052713;28;20033;-69
2022/05/07 02:33:18;;;;;;;26.45;16.73;;;6.80;88.00;;;;;;5052902;28;20037;-69
2022/05/07 02:35:44;;;;;;;21.85;16.08;;;6.80;87.60;;;;;;5050573;28;20048;-68
2022/05/07 02:38:09;;;;;;;25.48;16.30;;;6.90;87.80;;;;;;5035930;28;20029;-69
2022/05/07 02:42:33;;;;;;;20.60;15.43;;;6.90;88.60;;;;;;5053284;28;20436;-69
2022/05/07 02:43:21;;;;;;;25.00;15.77;;;6.80;88.80;;;;;;5058462;28;20060;-68
2022/05/07 02:45:46;;;;;;;19.50;13.82;;;6.80;88.30;;;;;;5054939;28;20118;-69
2022/05/07 02:48:12;;;;;;;22.95;15.32;;;6.80;87.80;;;;;;5056221;28;20336;-69
2022/05/07 02:50:39;;;;;;;24.88;16.20;;;6.90;87.80;;;;;;5057712;28;20060;-68
2022/05/07 02:53:04;;;;;;;23.23;14.73;;;7.00;87.90;;;;;;5040135;28;20033;-69
2022/05/07 02:55:30;;;;;;;19.92;14.27;;;7.00;88.40;;;;;;5055265;28;20044;-69
2022/05/07 02:57:56;;;;;;;26.20;15.05;;;7.00;88.30;;;;;;5057918;28;20451;-69
2022/05/07 03:00:21;;;;;;;19.33;13.07;;;7.00;88.30;;;;;;5055348;28;20041;-68
2022/05/07 03:02:47;;;;;;;18.27;13.02;;;7.00;88.50;;;;;;5038640;28;20047;-69
2022/05/07 03:05:13;;;;;;;20.23;13.65;;;7.00;88.60;;;;;;5056203;28;20108;-68
2022/05/07 03:07:38;;;;;;;24.75;15.93;;;7.00;88.50;;;;;;5058200;28;20037;-68
2022/05/07 03:10:04;;;;;;;20.02;12.88;;;7.00;88.90;;;;;;5037289;28;20047;-68
2022/05/07 03:12:30;;;;;;;21.77;14.05;;;6.90;89.10;;;;;;5067712;28;20344;-69
2022/05/07 03:14:55;;;;;;;18.95;13.43;;;6.90;89.70;;;;;;5055709;28;20078;-68
2022/05/07 03:17:23;;;;;;;20.80;13.25;;;6.80;89.70;;;;;;5035673;28;20087;-69
2022/05/07 03:19:48;;;;;;;21.25;14.27;;;6.70;90.00;;;;;;5057248;28;20067;-69
2022/05/07 03:22:17;;;;;;;23.08;14.48;;;6.50;89.70;;;;;;5057064;28;20029;-69
2022/05/07 03:24:43;;;;;;;20.67;12.85;;;6.50;89.10;;;;;;5038074;28;20080;-68
2022/05/07 03:27:08;;;;;;;22.67;12.45;;;6.50;88.70;;;;;;5039763;28;20025;-68
2022/05/07 03:29:34;;;;;;;21.48;13.77;;;6.50;88.40;;;;;;5055428;28;20410;-68
2022/05/07 03:32:00;;;;;;;21.80;11.82;;;6.50;88.20;;;;;;5055242;28;20456;-69
2022/05/07 03:34:25;;;;;;;21.67;13.55;;;6.50;88.00;;;;;;5056576;28;20033;-68
2022/05/07 03:36:51;;;;;;;20.60;10.55;;;6.50;88.10;;;;;;5056789;28;20100;-68
2022/05/07 03:39:17;;;;;;;20.13;13.18;;;6.40;87.80;;;;;;5056018;28;20032;-69
2022/05/07 03:41:43;;;;;;;20.25;12.70;;;6.30;88.40;;;;;;5056995;28;20028;-69
2022/05/07 03:44:09;;;;;;;14.30;10.98;;;6.10;89.20;;;;;;5059234;28;20503;-69
2022/05/07 03:46:34;;;;;;;19.48;12.02;;;5.90;88.80;;;;;;5054684;28;20228;-69
2022/05/07 03:49:00;;;;;;;18.95;12.68;;;5.90;87.00;;;;;;5056977;28;20021;-69
2022/05/07 03:51:26;;;;;;;18.02;12.05;;;6.00;86.40;;;;;;5055656;28;20120;-69
2022/05/07 03:53:51;;;;;;;19.00;12.32;;;6.10;85.70;;;;;;5055590;28;20492;-69
2022/05/07 03:56:17;;;;;;;21.05;11.98;;;6.20;86.30;;;;;;5055069;28;20033;-69
2022/05/07 03:58:42;;;;;;;21.23;12.98;;;6.20;86.70;;;;;;5055633;28;20407;-69
2022/05/07 04:01:08;;;;;;;17.50;11.82;;;6.20;86.80;;;;;;5054997;28;20091;-68
2022/05/07 04:03:34;;;;;;;18.67;12.80;;;6.20;86.90;;;;;;5055003;28;20308;-69
2022/05/07 04:06:00;;;;;;;17.90;11.40;;;6.20;87.00;;;;;;5054347;28;20365;-69
2022/05/07 04:08:26;;;;;;;21.15;12.55;;;6.20;86.70;;;;;;5055560;28;20029;-68
2022/05/07 04:10:51;;;;;;;20.73;12.38;;;6.20;86.80;;;;;;5055027;28;20334;-69
2022/05/07 04:13:20;;;;;;;19.42;13.27;;;6.10;87.10;;;;;;5057002;28;20029;-69
2022/05/07 04:15:46;;;;;;;19.25;13.45;;;6.00;87.90;;;;;;5054666;28;20074;-68
2022/05/07 04:18:12;;;;;;;16.75;12.23;;;6.00;87.10;;;;;;5054043;28;20100;-68
2022/05/07 04:20:38;;;;;;;21.05;12.98;;;5.90;87.40;;;;;;5055028;28;20389;-68
2022/05/07 04:23:05;;;;;;;26.20;14.07;;;6.00;85.70;;;;;;5056915;28;20132;-68
2022/05/07 04:25:30;;;;;;;23.17;14.68;;;6.00;86.00;;;;;;5054692;28;21995;-66
2022/05/07 04:27:56;;;;;;;19.35;13.63;;;6.10;86.20;;;;;;5055830;28;20028;-68
2022/05/07 04:30:23;;;;;;;21.10;13.95;;;6.10;85.80;;;;;;5055058;28;20079;-67
2022/05/07 04:32:51;;;;;;;23.83;14.55;;;6.20;85.80;;;;;;5037612;28;20029;-69
2022/05/07 04:35:17;;;;;;;21.95;13.45;;;6.20;85.80;;;;;;5035676;28;20025;-69
2022/05/07 04:37:42;;;;;;;19.00;13.30;;;6.20;85.60;;;;;;5054320;28;20326;-68
2022/05/07 04:40:10;;;;;;;23.00;13.65;;;6.20;85.90;;;;;;5055420;28;20029;-69
2022/05/07 04:42:37;;;;;;;20.00;13.73;;;6.20;85.80;;;;;;5055654;28;20159;-69
2022/05/07 04:45:04;;;;;;;26.77;14.32;;;6.20;85.80;;;;;;5037674;28;20058;-69
2022/05/07 04:47:30;;;;;;;26.90;14.35;;;6.30;86.00;;;;;;5055064;28;20045;-69
2022/05/07 04:49:56;;;;;;;24.83;14.43;;;6.30;86.60;;;;;;5053411;28;20033;-68
2022/05/07 04:52:22;;;;;;;21.00;13.60;;;6.30;86.30;;;;;;5050919;28;20020;-68
2022/05/07 04:54:48;;;;;;;17.73;12.68;;;6.40;86.00;;;;;;5054351;28;20787;-68
2022/05/07 04:57:14;;;;;;;21.83;14.65;;;6.50;86.90;;;;;;5054605;28;20021;-69
2022/05/07 04:59:40;;;;;;;21.60;14.32;;;6.50;87.50;;;;;;5052848;28;20040;-68
2022/05/07 05:02:05;;;;;;;22.83;14.38;;;6.50;87.20;;;;;;5052791;28;20104;-69
2022/05/07 05:04:31;;;;;;;23.50;14.38;;;6.50;87.40;;;;;;5054193;28;20036;-67
2022/05/07 05:06:56;;;;;;;23.55;14.77;;;6.50;87.70;;;;;;5068780;28;20078;-68
2022/05/07 05:09:22;;;;;;;25.70;16.48;;;6.60;87.70;;;;;;5065291;28;20013;-69
2022/05/07 05:11:48;;;;;;;19.60;13.77;;;6.60;88.00;;;;;;5056577;28;20043;-68
2022/05/07 05:16:59;;;;;;;24.95;15.75;;;6.60;87.50;;;;;;5053047;28;20059;-69
2022/05/07 05:19:25;;;;;;;21.55;14.82;;;6.70;87.40;;;;;;5056105;28;20021;-69
2022/05/07 05:21:50;;;;;;;21.17;14.75;;;6.70;87.30;;;;;;5042497;28;20028;-68
2022/05/07 05:24:16;;;;;;;20.45;12.90;;;6.80;86.70;;;;;;5060626;28;20025;-68
2022/05/07 05:26:41;;;;;;;21.25;13.90;;;6.90;86.50;;;;;;5044157;28;20094;-68
2022/05/07 05:29:07;;;;;;;17.95;13.18;;;7.00;86.90;;;;;;5060658;28;20422;-69
2022/05/07 05:31:33;;;;;;;20.55;12.98;;;7.10;87.60;;;;;;5051382;28;20021;-68
2022/05/07 05:33:58;;;;;;;19.42;12.63;;;7.20;87.70;;;;;;5054466;28;20334;-68
2022/05/07 05:36:26;;;;;;;18.98;13.52;;;7.40;87.20;;;;;;5054000;28;20031;-70
2022/05/07 05:38:52;;;;;;;17.42;12.18;;;7.60;87.80;;;;;;5060850;28;20036;-69
2022/05/07 05:41:18;;;;;;;16.02;12.00;;;7.70;88.00;;;;;;5045486;28;20032;-68
2022/05/07 05:43:45;;;;;;;16.23;12.00;;;7.80;87.90;;;;;;5050371;28;20017;-68
2022/05/07 05:46:11;;;;;;;20.13;13.13;;;7.90;89.20;;;;;;5063269;28;20052;-68
2022/05/07 05:48:37;;;;;;;14.85;11.38;;;8.00;89.70;;;;;;5053093;28;20410;-69
2022/05/07 05:51:04;;;;;;;14.63;11.60;;;8.10;90.30;;;;;;5054225;28;20025;-68
2022/05/07 05:53:30;;;;;;;13.30;10.15;;;8.20;90.60;;;;;;5072552;28;20020;-69
2022/05/07 05:55:58;;;;;;;17.85;12.40;;;8.30;90.60;;;;;;5058260;28;20040;-68
2022/05/07 05:58:23;;;;;;;20.27;11.13;;;8.40;91.10;;;;;;5055407;28;20322;-69
2022/05/07 06:00:52;;;;;;;17.85;11.30;;;8.50;91.50;;;;;;5053789;28;20044;-69
2022/05/07 06:03:18;;;;;;;14.23;9.98;;;8.60;92.10;;;;;;5051034;28;20436;-68
2022/05/07 06:05:44;;;;;;;15.85;10.15;;;8.80;92.70;;;;;;5054289;28;20103;-69
2022/05/07 06:08:12;;;;;;;14.10;8.90;;;9.00;93.30;;;;;;5053230;28;20436;-69
2022/05/07 06:10:37;;;;;;;13.45;9.73;;;9.30;93.40;;;;;;5054477;28;20119;-68
2022/05/07 06:13:03;;;;;;;12.20;9.43;;;9.60;94.90;;;;;;5054288;28;20167;-68
2022/05/07 06:15:29;;;;;;;15.13;9.20;;;9.90;95.20;;;;;;5053092;28;20418;-69
2022/05/07 06:17:54;;;;;;;12.40;9.23;;;10.10;96.60;;;;;;5057621;28;20028;-68
2022/05/07 06:20:20;;;;;;;12.80;9.07;;;10.30;97.00;;;;;;5035490;28;20059;-69
2022/05/07 06:22:45;;;;;;;14.13;9.98;;;10.60;96.70;;;;;;5057831;28;20025;-68
2022/05/07 06:27:55;;;;;;;16.92;10.45;;;10.90;98.00;;;;;;5064967;28;20044;-68
2022/05/07 06:30:21;;;;;;;13.05;10.18;;;11.00;98.00;;;;;;5062903;28;20037;-68
2022/05/07 06:32:47;;;;;;;15.18;10.27;;;11.10;98.00;;;;;;5055352;28;20338;-69
2022/05/07 06:35:14;;;;;;;13.50;10.40;;;11.10;98.00;;;;;;5067631;28;20028;-68
2022/05/07 06:37:40;;;;;;;17.17;10.95;;;11.10;98.00;;;;;;5060548;28;20033;-69
2022/05/07 06:40:07;;;;;;;18.60;11.80;;;11.20;98.00;;;;;;5055263;28;20345;-69
2022/05/07 06:42:36;;;;;;;17.60;12.40;;;11.30;98.00;;;;;;5067876;28;20031;-68
2022/05/07 06:45:03;;;;;;;16.25;12.80;;;11.40;98.00;;;;;;5067196;28;20032;-69
2022/05/07 06:47:29;;;;;;;15.15;11.65;;;11.50;98.00;;;;;;5057156;28;20033;-69
2022/05/07 06:49:54;;;;;;;17.27;12.13;;;11.70;98.00;;;;;;5071238;28;20395;-69
2022/05/07 06:52:20;;;;;;;17.77;12.40;;;11.80;97.90;;;;;;5061624;28;20056;-74
2022/05/07 06:54:46;;;;;;;20.38;12.25;;;12.00;97.90;;;;;;5052274;28;20036;-69
2022/05/07 06:57:11;;;;;;;14.40;10.77;;;12.20;97.20;;;;;;5057127;28;20091;-69
2022/05/07 06:59:37;;;;;;;15.15;11.02;;;12.30;96.50;;;;;;5054133;28;20036;-68
2022/05/07 07:02:04;;;;;;;15.35;11.65;;;12.50;96.60;;;;;;5037808;28;20033;-69
2022/05/07 07:04:30;;;;;;;19.45;11.25;;;12.70;96.30;;;;;;5047607;28;20083;-68
2022/05/07 07:06:57;;;;;;;14.65;11.05;;;12.80;95.50;;;;;;5039315;28;20021;-69
2022/05/07 07:09:22;;;;;;;13.40;9.60;;;12.90;95.20;;;;;;5048077;28;20033;-68
2022/05/07 07:11:48;;;;;;;15.52;9.80;;;12.90;95.30;;;;;;5058081;28;20047;-69
2022/05/07 07:14:14;;;;;;;13.93;10.25;;;13.00;94.80;;;;;;5043929;28;20517;-68
2022/05/07 07:16:39;;;;;;;17.17;10.27;;;13.20;95.00;;;;;;5033930;28;20096;-67
2022/05/07 07:19:05;;;;;;;15.23;10.43;;;13.30;94.40;;;;;;5032487;28;20150;-68
2022/05/07 07:21:31;;;;;;;14.85;10.02;;;13.40;94.10;;;;;;5037163;28;20032;-66
2022/05/07 07:23:57;;;;;;;14.57;10.63;;;13.40;94.20;;;;;;5036845;28;20079;-68
2022/05/07 07:26:23;;;;;;;13.93;10.25;;;13.50;94.70;;;;;;5035511;28;20051;-69
2022/05/07 07:28:52;;;;;;;32.72;18.60;;;13.40;94.30;;;;;;5032903;28;20032;-68
2022/05/07 07:31:17;;;;;;;18.60;11.32;;;13.40;95.40;;;;;;5030568;28;20453;-69
2022/05/07 07:33:43;;;;;;;11.85;8.57;;;13.50;95.20;;;;;;5035302;28;20033;-68
2022/05/07 07:36:11;;;;;;;12.50;7.88;;;13.70;95.30;;;;;;5033136;28;20029;-68
2022/05/07 07:38:37;;;;;;;11.73;7.68;;;14.00;93.50;;;;;;5024284;28;20326;-69
2022/05/07 07:41:05;;;;;;;10.82;7.40;;;14.80;91.90;;;;;;5035907;28;20024;-68
2022/05/07 07:43:31;;;;;;;11.30;8.38;;;15.50;90.00;;;;;;5033531;28;20478;-69
2022/05/07 07:48:41;;;;;;;14.10;8.50;;;15.90;87.70;;;;;;5033744;28;20081;-68
2022/05/07 07:51:08;;;;;;;14.48;8.07;;;15.70;87.70;;;;;;5035487;28;20025;-68
2022/05/07 07:53:36;;;;;;;12.02;7.05;;;15.90;88.40;;;;;;5042890;28;20097;-69
2022/05/07 07:56:03;;;;;;;13.55;7.57;;;16.00;86.70;;;;;;5035314;28;20392;-69
2022/05/07 07:58:30;;;;;;;9.93;6.97;;;16.10;86.30;;;;;;5036346;28;20036;-68
2022/05/07 08:00:55;;;;;;;9.90;6.60;;;16.20;87.00;;;;;;5025262;28;20049;-69
2022/05/07 08:03:21;;;;;;;9.65;7.38;;;16.30;85.40;;;;;;5042862;28;20021;-70
2022/05/07 08:05:49;;;;;;;8.32;6.38;;;16.40;83.80;;;;;;5046367;28;20037;-69
2022/05/07 08:13:46;;;;;;;10.95;7.32;;;16.50;83.50;;;;;;5017513;28;20053;-69
2022/05/07 08:16:13;;;;;;;13.85;7.35;;;17.10;83.50;;;;;;5019851;28;20435;-68
2022/05/07 08:18:41;;;;;;;12.35;7.18;;;16.90;83.30;;;;;;5007876;28;20091;-68
2022/05/07 08:21:08;;;;;;;11.75;8.32;;;16.90;83.30;;;;;;5006839;28;20032;-68
2022/05/07 08:23:34;;;;;;;10.82;7.22;;;17.10;82.60;;;;;;5011960;28;20032;-68
2022/05/07 08:26:02;;;;;;;13.35;8.30;;;17.10;82.10;;;;;;5013628;28;20034;-68
2022/05/07 08:28:29;;;;;;;9.98;6.85;;;17.30;81.80;;;;;;4996604;28;20040;-69
2022/05/07 08:30:55;;;;;;;11.40;7.60;;;17.50;81.20;;;;;;5009680;28;20179;-67
2022/05/07 08:33:20;;;;;;;13.45;8.10;;;17.70;81.00;;;;;;4992686;28;20038;-68
2022/05/07 08:35:46;;;;;;;13.25;8.90;;;17.90;79.90;;;;;;5015633;28;20034;-69
2022/05/07 08:38:13;;;;;;;12.52;8.32;;;17.90;79.80;;;;;;5007691;28;20021;-69
2022/05/07 08:40:40;;;;;;;11.98;8.75;;;17.80;80.30;;;;;;5011935;28;20536;-68
2022/05/07 08:43:06;;;;;;;13.90;7.90;;;17.80;80.00;;;;;;5014109;28;20030;-68
2022/05/07 08:45:33;;;;;;;10.65;8.05;;;18.00;80.50;;;;;;5008912;28;20042;-68
2022/05/07 08:47:59;;;;;;;13.95;9.20;;;17.90;79.90;;;;;;5011647;28;20040;-68
2022/05/07 08:50:26;;;;;;;12.23;8.00;;;17.80;79.00;;;;;;5012407;28;20034;-68
2022/05/07 08:52:53;;;;;;;12.30;8.30;;;17.80;80.20;;;;;;5022411;28;20048;-68
2022/05/07 08:55:20;;;;;;;12.05;7.65;;;17.70;81.20;;;;;;5024908;28;20439;-68
2022/05/07 08:57:48;;;;;;;13.95;8.90;;;17.60;81.90;;;;;;5018807;28;20033;-68
2022/05/07 09:00:15;;;;;;;17.70;9.18;;;17.70;81.70;;;;;;5035878;28;20041;-69
2022/05/07 09:02:50;;;;;;;13.35;8.57;;;17.80;79.50;;;;;;5055253;28;20480;-68
2022/05/07 09:05:20;;;;;;;14.07;9.38;;;17.90;79.20;;;;;;5036619;28;20053;-69
2022/05/07 09:07:58;;;;;;;13.05;8.90;;;18.10;78.70;;;;;;5038268;28;20422;-68
2022/05/07 09:10:28;;;;;;;14.88;10.43;;;18.60;77.70;;;;;;5036766;28;20048;-69
2022/05/07 09:12:58;;;;;;;14.27;9.73;;;18.80;77.10;;;;;;5052420;28;20021;-69
2022/05/07 09:15:24;;;;;;;12.35;8.70;;;19.00;75.50;;;;;;5053172;28;20021;-69
2022/05/07 09:17:50;;;;;;;15.88;9.30;;;19.60;76.30;;;;;;5043536;28;20061;-68
2022/05/07 09:20:18;;;;;;;14.88;9.60;;;20.40;71.70;;;;;;5033633;28;20084;-69
2022/05/07 09:22:55;;;;;;;13.23;8.85;;;20.80;71.20;;;;;;5036276;28;20140;-68
2022/05/07 09:25:26;;;;;;;14.70;9.52;;;21.10;70.60;;;;;;5027311;28;20462;-68
2022/05/07 09:28:01;;;;;;;15.23;9.52;;;21.30;70.80;;;;;;5029498;28;20044;-68
2022/05/07 09:30:28;;;;;;;13.52;8.40;;;21.30;70.40;;;;;;5028123;28;20430;-68
2022/05/07 09:32:55;;;;;;;12.15;9.05;;;21.60;70.40;;;;;;5032722;28;20044;-68
2022/05/07 09:38:14;;;;;;;12.52;9.27;;;21.90;68.50;;;;;;5030771;28;20441;-68
2022/05/07 09:40:42;;;;;;;13.57;10.68;;;21.40;68.20;;;;;;5029081;28;20442;-68
2022/05/07 09:43:13;;;;;;;12.05;9.68;;;20.80;68.90;;;;;;5033832;28;20407;-69
2022/05/07 09:45:40;;;;;;;16.13;10.02;;;20.60;71.10;;;;;;5039575;28;20036;-68
2022/05/07 09:48:07;;;;;;;14.07;10.13;;;20.20;70.00;;;;;;5027275;28;20060;-68
2022/05/07 09:58:38;;;;;;;14.32;9.85;;;19.70;74.40;;;;;;5051356;28;20424;-70
2022/05/07 10:01:25;;;;;;;15.13;10.00;;;19.90;72.40;;;;;;5057896;28;20045;-70
2022/05/07 10:04:15;;;;;;;14.55;9.68;;;20.10;72.50;;;;;;5058527;28;20021;-70
2022/05/07 10:06:49;;;;;;;15.43;9.55;;;20.70;71.40;;;;;;5058737;28;20330;-70
2022/05/07 10:09:36;;;;;;;11.85;7.88;;;21.30;70.20;;;;;;5057484;28;20031;-69
2022/05/07 10:12:03;;;;;;;13.90;9.32;;;22.10;69.00;;;;;;5058645;28;20096;-68
2022/05/07 10:14:31;;;;;;;13.65;8.50;;;22.00;67.70;;;;;;5059597;28;20051;-68
2022/05/07 10:17:00;;;;;;;12.18;6.80;;;22.40;66.60;;;;;;5056298;28;20017;-68
2022/05/07 10:19:45;;;;;;;12.25;7.35;;;23.30;63.70;;;;;;5059335;28;20025;-68
2022/05/07 10:22:16;;;;;;;14.05;8.18;;;23.80;63.80;;;;;;5057825;28;20025;-70
2022/05/07 10:24:45;;;;;;;11.77;8.40;;;21.90;65.50;;;;;;5055944;28;20016;-70
2022/05/07 10:27:30;;;;;;;11.23;8.27;;;20.50;71.20;;;;;;5063596;28;20024;-70
2022/05/07 10:30:09;;;;;;;10.25;7.47;;;20.00;72.20;;;;;;5054188;28;20025;-70
2022/05/07 10:32:55;;;;;;;11.30;7.93;;;20.10;69.90;;;;;;5058536;28;20025;-69
2022/05/07 10:35:45;;;;;;;12.75;7.28;;;20.80;69.60;;;;;;5061833;28;20025;-70
2022/05/07 10:38:15;;;;;;;9.60;6.90;;;20.80;67.60;;;;;;5036060;28;20025;-69
2022/05/07 10:40:53;;;;;;;11.25;6.50;;;21.00;66.10;;;;;;5056414;28;20413;-69
2022/05/07 10:43:36;;;;;;;9.40;6.60;;;20.90;66.50;;;;;;5057818;28;20036;-69
2022/05/07 10:46:14;;;;;;;8.93;5.70;;;20.70;67.40;;;;;;5055982;28;20334;-70
2022/05/07 10:48:46;;;;;;;9.25;5.82;;;21.20;66.10;;;;;;5044812;28;20025;-68
2022/05/07 10:51:29;;;;;;;8.43;5.97;;;21.70;64.50;;;;;;5047953;28;20029;-68
2022/05/07 10:54:00;;;;;;;8.93;5.57;;;22.00;64.80;;;;;;5031702;28;20029;-69
2022/05/07 10:56:28;;;;;;;8.18;5.93;;;22.10;63.70;;;;;;5057167;28;20037;-69
2022/05/07 10:58:57;;;;;;;9.65;5.90;;;21.30;65.60;;;;;;5037267;28;20056;-68
2022/05/07 11:01:27;;;;;;;8.20;5.20;;;21.60;64.90;;;;;;5052934;28;20053;-69
2022/05/07 11:04:04;;;;;;;8.68;4.90;;;22.10;65.00;;;;;;5035431;28;20053;-70
2022/05/07 11:06:52;;;;;;;9.02;4.53;;;22.30;64.20;;;;;;5053991;28;20024;-69
2022/05/07 11:09:23;;;;;;;7.18;4.90;;;22.30;63.20;;;;;;5042456;28;20324;-69
2022/05/07 11:11:56;;;;;;;7.55;4.35;;;22.20;62.40;;;;;;5053273;28;21042;-68
2022/05/07 11:14:32;;;;;;;6.22;4.03;;;21.60;63.40;;;;;;5053320;28;20304;-68
2022/05/07 11:16:59;;;;;;;8.65;4.55;;;21.30;63.60;;;;;;5037377;28;20061;-68
2022/05/07 11:19:32;;;;;;;9.35;5.43;;;21.40;63.80;;;;;;5054570;28;20025;-69
2022/05/07 11:22:02;;;;;;;8.40;5.10;;;20.60;65.90;;;;;;5058314;28;20028;-68
2022/05/07 11:24:30;;;;;;;7.50;4.60;;;20.90;65.00;;;;;;5056361;28;20099;-69
2022/05/07 11:27:02;;;;;;;7.38;4.35;;;21.40;65.20;;;;;;5058234;28;20052;-69
2022/05/07 11:29:29;;;;;;;8.90;4.43;;;22.10;63.20;;;;;;5056718;28;20334;-69
2022/05/07 11:32:07;;;;;;;8.38;4.50;;;22.10;64.60;;;;;;5056988;28;20075;-69
2022/05/07 11:34:33;;;;;;;9.35;4.88;;;22.40;62.20;;;;;;5056559;28;20032;-69
2022/05/07 11:37:11;;;;;;;9.95;5.05;;;23.00;62.90;;;;;;5057602;28;20028;-69
2022/05/07 11:39:53;;;;;;;6.38;4.32;;;23.20;59.90;;;;;;5055216;28;20051;-69
2022/05/07 11:45:25;;;;;;;7.55;4.45;;;23.30;61.80;;;;;;5058008;28;20021;-69
2022/05/07 11:45:37;;;;;;;9.43;5.05;;;22.90;60.30;;;;;;5009124;28;20120;-69
2022/05/07 11:48:14;;;;;;;8.20;4.60;;;22.30;61.30;;;;;;5053599;28;20367;-68
2022/05/07 11:50:49;;;;;;;8.73;4.60;;;21.40;63.30;;;;;;5056052;28;20025;-69
2022/05/07 11:53:17;;;;;;;8.57;4.90;;;21.20;62.90;;;;;;5057924;28;20053;-69
2022/05/07 11:55:46;;;;;;;8.98;5.43;;;21.30;64.00;;;;;;5056538;28;20107;-69
2022/05/07 11:58:22;;;;;;;9.15;4.90;;;21.10;63.90;;;;;;5057421;28;20037;-69
2022/05/07 12:00:56;;;;;;;9.60;4.50;;;21.30;63.30;;;;;;5056307;28;20037;-69
2022/05/07 12:03:26;;;;;;;12.85;5.57;;;21.50;63.30;;;;;;5054802;28;20021;-68
2022/05/07 12:05:55;;;;;;;9.55;4.80;;;21.80;60.80;;;;;;5054493;28;20303;-69
2022/05/07 12:08:23;;;;;;;7.82;5.00;;;22.00;62.50;;;;;;5053775;28;20017;-69
2022/05/07 12:10:53;;;;;;;6.43;4.20;;;22.00;63.30;;;;;;5047293;28;20025;-69
2022/05/07 12:13:24;;;;;;;10.73;5.40;;;22.50;60.90;;;;;;5037607;28;20370;-69
2022/05/07 12:18:36;;;;;;;8.48;4.15;;;21.60;62.60;;;;;;5053346;28;20487;-68
2022/05/07 12:21:02;;;;;;;8.38;4.63;;;20.60;61.40;;;;;;5056644;28;20070;-68
2022/05/07 12:31:44;;;;;;;11.02;5.18;;;20.60;63.80;;;;;;5051073;28;20044;-68
2022/05/07 12:34:10;;;;;;;8.30;4.40;;;21.20;63.10;;;;;;5052300;28;20040;-69
2022/05/07 12:36:35;;;;;;;8.27;4.35;;;21.90;63.00;;;;;;5054953;28;20029;-68
2022/05/07 12:39:02;;;;;;;7.70;3.85;;;23.30;61.10;;;;;;5054224;28;20032;-68
2022/05/07 12:41:29;;;;;;;8.10;3.88;;;24.30;58.10;;;;;;5053624;28;20033;-70
2022/05/07 12:43:57;;;;;;;8.02;3.55;;;24.60;57.20;;;;;;5055687;28;20029;-69
2022/05/07 12:46:24;;;;;;;7.30;3.40;;;24.70;56.70;;;;;;5056038;28;20040;-70
2022/05/07 12:48:50;;;;;;;7.13;4.18;;;24.60;57.10;;;;;;5047915;28;20032;-69
2022/05/07 12:51:16;;;;;;;6.40;3.45;;;24.10;56.30;;;;;;5037731;28;20021;-69
2022/05/07 12:53:42;;;;;;;6.65;3.53;;;24.00;55.90;;;;;;5026346;28;20029;-68
2022/05/07 12:56:08;;;;;;;6.88;3.47;;;23.60;57.70;;;;;;5036936;28;20029;-68
2022/05/07 12:58:34;;;;;;;8.20;4.05;;;23.50;55.70;;;;;;5051045;28;20045;-68
2022/05/07 13:01:03;;;;;;;8.82;3.38;;;23.50;57.20;;;;;;5034338;28;20342;-68
2022/05/07 13:03:29;;;;;;;6.55;3.75;;;23.30;56.20;;;;;;5050511;28;20029;-69
2022/05/07 13:05:55;;;;;;;6.28;3.28;;;23.00;57.20;;;;;;5050521;28;20329;-68
2022/05/07 13:08:20;;;;;;;8.48;3.45;;;22.60;57.90;;;;;;5049801;28;20055;-69
2022/05/07 13:10:49;;;;;;;7.53;4.00;;;22.50;57.70;;;;;;5045564;28;20360;-69
2022/05/07 13:13:18;;;;;;;7.88;3.63;;;21.90;59.70;;;;;;5053085;28;20313;-69
2022/05/07 13:15:44;;;;;;;6.07;3.72;;;21.80;61.20;;;;;;5052726;28;20036;-69
2022/05/07 13:18:10;;;;;;;6.32;3.83;;;22.30;60.50;;;;;;5048525;28;20044;-69
2022/05/07 13:20:38;;;;;;;6.43;3.53;;;23.00;57.90;;;;;;5051665;28;20116;-67
2022/05/07 13:23:04;;;;;;;8.95;3.25;;;23.70;58.50;;;;;;5039072;28;20021;-67
2022/05/07 13:25:30;;;;;;;6.57;3.15;;;24.60;56.90;;;;;;5055341;28;20027;-69